sensor_id;sensor_type;location;lat;lon;timestamp;P1;durP1;ratioP1;P2;durP2;ratioP2
31906;SDS011;18455;50.858;13.662;2023-08-21T00:03:28;15.18;;;10.73;;
31906;SDS011;18455;50.858;13.662;2023-08-21T00:08:30;11.77;;;10.35;;
31906;SDS011;18455;50.858;13.662;2023-08-21T00:13:30;11.73;;;10.02;;
31906;SDS011;18455;50.858;13.662;2023-08-21T00:18:30;12.88;;;10.85;;
31906;SDS011;18455;50.858;13.662;2023-08-21T00:23:31;14.02;;;10.70;;
31906;SDS011;18455;50.858;13.662;2023-08-21T00:28:31;11.45;;;10.10;;
31906;SDS011;18455;50.858;13.662;2023-08-21T00:33:33;11.55;;;10.40;;
31906;SDS011;18455;50.858;13.662;2023-08-21T00:38:34;15.93;;;10.63;;
31906;SDS011;18455;50.858;13.662;2023-08-21T00:43:34;13.30;;;10.27;;
31906;SDS011;18455;50.858;13.662;2023-08-21T00:48:35;15.15;;;10.30;;
31906;SDS011;18455;50.858;13.662;2023-08-21T00:53:36;12.68;;;10.63;;
31906;SDS011;18455;50.858;13.662;2023-08-21T00:58:36;15.85;;;10.90;;
31906;SDS011;18455;50.858;13.662;2023-08-21T01:03:37;11.30;;;10.07;;
31906;SDS011;18455;50.858;13.662;2023-08-21T01:08:42;14.05;;;11.15;;
31906;SDS011;18455;50.858;13.662;2023-08-21T01:19:09;13.25;;;11.30;;
31906;SDS011;18455;50.858;13.662;2023-08-21T01:24:19;15.60;;;11.73;;
31906;SDS011;18455;50.858;13.662;2023-08-21T01:29:20;14.13;;;11.30;;
31906;SDS011;18455;50.858;13.662;2023-08-21T01:34:20;17.13;;;11.95;;
31906;SDS011;18455;50.858;13.662;2023-08-21T01:39:21;14.68;;;11.50;;
31906;SDS011;18455;50.858;13.662;2023-08-21T01:44:23;16.52;;;12.00;;
31906;SDS011;18455;50.858;13.662;2023-08-21T01:49:23;13.10;;;11.40;;
31906;SDS011;18455;50.858;13.662;2023-08-21T01:54:23;11.82;;;10.63;;
31906;SDS011;18455;50.858;13.662;2023-08-21T01:59:24;14.20;;;12.13;;
31906;SDS011;18455;50.858;13.662;2023-08-21T02:04:24;16.58;;;12.27;;
31906;SDS011;18455;50.858;13.662;2023-08-21T02:09:25;12.48;;;11.27;;
31906;SDS011;18455;50.858;13.662;2023-08-21T02:14:25;13.00;;;11.68;;
31906;SDS011;18455;50.858;13.662;2023-08-21T02:19:26;14.73;;;11.57;;
31906;SDS011;18455;50.858;13.662;2023-08-21T02:24:26;13.90;;;12.05;;
31906;SDS011;18455;50.858;13.662;2023-08-21T02:29:26;17.15;;;13.18;;
31906;SDS011;18455;50.858;13.662;2023-08-21T02:34:27;16.65;;;13.75;;
31906;SDS011;18455;50.858;13.662;2023-08-21T02:39:27;15.40;;;12.40;;
31906;SDS011;18455;50.858;13.662;2023-08-21T02:44:28;15.65;;;12.05;;
31906;SDS011;18455;50.858;13.662;2023-08-21T02:49:28;13.50;;;11.52;;
31906;SDS011;18455;50.858;13.662;2023-08-21T02:54:29;15.80;;;12.13;;
31906;SDS011;18455;50.858;13.662;2023-08-21T02:59:29;12.80;;;11.38;;
31906;SDS011;18455;50.858;13.662;2023-08-21T03:04:29;14.55;;;11.57;;
31906;SDS011;18455;50.858;13.662;2023-08-21T03:09:30;13.90;;;11.88;;
31906;SDS011;18455;50.858;13.662;2023-08-21T03:14:30;19.90;;;12.32;;
31906;SDS011;18455;50.858;13.662;2023-08-21T03:19:31;15.43;;;11.77;;
31906;SDS011;18455;50.858;13.662;2023-08-21T03:24:31;14.25;;;12.23;;
31906;SDS011;18455;50.858;13.662;2023-08-21T03:29:32;15.23;;;12.13;;
31906;SDS011;18455;50.858;13.662;2023-08-21T03:34:32;15.30;;;12.10;;
31906;SDS011;18455;50.858;13.662;2023-08-21T03:39:36;14.35;;;12.30;;
31906;SDS011;18455;50.858;13.662;2023-08-21T03:44:37;14.10;;;12.65;;
31906;SDS011;18455;50.858;13.662;2023-08-21T03:49:38;19.15;;;12.00;;
31906;SDS011;18455;50.858;13.662;2023-08-21T03:54:38;15.82;;;11.85;;
31906;SDS011;18455;50.858;13.662;2023-08-21T03:59:39;13.18;;;11.77;;
31906;SDS011;18455;50.858;13.662;2023-08-21T04:04:39;14.93;;;11.43;;
31906;SDS011;18455;50.858;13.662;2023-08-21T04:09:40;14.70;;;12.27;;
31906;SDS011;18455;50.858;13.662;2023-08-21T04:14:40;14.93;;;12.40;;
31906;SDS011;18455;50.858;13.662;2023-08-21T04:19:41;16.08;;;12.93;;
31906;SDS011;18455;50.858;13.662;2023-08-21T04:24:43;18.85;;;12.35;;
31906;SDS011;18455;50.858;13.662;2023-08-21T04:29:44;13.30;;;11.80;;
31906;SDS011;18455;50.858;13.662;2023-08-21T04:34:44;17.23;;;12.63;;
31906;SDS011;18455;50.858;13.662;2023-08-21T04:39:45;12.73;;;10.85;;
31906;SDS011;18455;50.858;13.662;2023-08-21T04:44:46;13.32;;;11.93;;
31906;SDS011;18455;50.858;13.662;2023-08-21T04:49:48;12.25;;;10.95;;
31906;SDS011;18455;50.858;13.662;2023-08-21T04:54:50;12.43;;;11.15;;
31906;SDS011;18455;50.858;13.662;2023-08-21T04:59:51;13.57;;;11.88;;
31906;SDS011;18455;50.858;13.662;2023-08-21T05:10:31;15.85;;;12.20;;
31906;SDS011;18455;50.858;13.662;2023-08-21T05:15:44;15.68;;;11.50;;
31906;SDS011;18455;50.858;13.662;2023-08-21T05:21:13;11.70;;;9.52;;
31906;SDS011;18455;50.858;13.662;2023-08-21T05:26:53;12.18;;;10.68;;
31906;SDS011;18455;50.858;13.662;2023-08-21T05:31:58;14.30;;;11.77;;
31906;SDS011;18455;50.858;13.662;2023-08-21T05:37:23;14.55;;;11.25;;
31906;SDS011;18455;50.858;13.662;2023-08-21T05:42:49;12.57;;;10.10;;
31906;SDS011;18455;50.858;13.662;2023-08-21T05:48:02;11.75;;;10.32;;
31906;SDS011;18455;50.858;13.662;2023-08-21T05:53:04;11.80;;;9.30;;
31906;SDS011;18455;50.858;13.662;2023-08-21T05:58:05;11.07;;;9.68;;
31906;SDS011;18455;50.858;13.662;2023-08-21T06:03:06;9.93;;;8.35;;
31906;SDS011;18455;50.858;13.662;2023-08-21T06:08:35;13.13;;;8.27;;
31906;SDS011;18455;50.858;13.662;2023-08-21T06:13:36;11.10;;;8.13;;
31906;SDS011;18455;50.858;13.662;2023-08-21T06:18:36;8.75;;;7.85;;
31906;SDS011;18455;50.858;13.662;2023-08-21T06:23:37;11.02;;;7.43;;
31906;SDS011;18455;50.858;13.662;2023-08-21T06:28:37;9.30;;;7.68;;
31906;SDS011;18455;50.858;13.662;2023-08-21T06:33:38;8.57;;;7.03;;
31906;SDS011;18455;50.858;13.662;2023-08-21T06:38:38;8.25;;;7.22;;
31906;SDS011;18455;50.858;13.662;2023-08-21T06:43:40;7.97;;;6.65;;
31906;SDS011;18455;50.858;13.662;2023-08-21T06:48:41;7.28;;;6.55;;
31906;SDS011;18455;50.858;13.662;2023-08-21T06:53:42;7.13;;;6.40;;
31906;SDS011;18455;50.858;13.662;2023-08-21T06:58:46;7.13;;;6.20;;
31906;SDS011;18455;50.858;13.662;2023-08-21T07:04:18;8.05;;;6.47;;
31906;SDS011;18455;50.858;13.662;2023-08-21T07:09:18;6.82;;;6.13;;
31906;SDS011;18455;50.858;13.662;2023-08-21T07:14:19;9.73;;;6.28;;
31906;SDS011;18455;50.858;13.662;2023-08-21T07:19:19;9.15;;;7.07;;
31906;SDS011;18455;50.858;13.662;2023-08-21T07:24:20;8.93;;;6.53;;
31906;SDS011;18455;50.858;13.662;2023-08-21T07:29:20;8.00;;;6.88;;
31906;SDS011;18455;50.858;13.662;2023-08-21T07:34:21;7.77;;;6.97;;
31906;SDS011;18455;50.858;13.662;2023-08-21T07:39:21;6.70;;;6.00;;
31906;SDS011;18455;50.858;13.662;2023-08-21T07:44:22;9.13;;;6.80;;
31906;SDS011;18455;50.858;13.662;2023-08-21T07:49:22;7.78;;;6.53;;
31906;SDS011;18455;50.858;13.662;2023-08-21T07:54:22;8.70;;;7.80;;
31906;SDS011;18455;50.858;13.662;2023-08-21T07:59:24;9.27;;;6.90;;
31906;SDS011;18455;50.858;13.662;2023-08-21T08:04:25;9.43;;;7.55;;
31906;SDS011;18455;50.858;13.662;2023-08-21T08:09:25;8.00;;;6.77;;
31906;SDS011;18455;50.858;13.662;2023-08-21T08:14:25;7.95;;;7.15;;
31906;SDS011;18455;50.858;13.662;2023-08-21T08:19:27;8.65;;;6.70;;
31906;SDS011;18455;50.858;13.662;2023-08-21T08:24:28;9.60;;;6.95;;
31906;SDS011;18455;50.858;13.662;2023-08-21T08:29:28;8.35;;;7.22;;
31906;SDS011;18455;50.858;13.662;2023-08-21T08:34:29;9.70;;;7.07;;
31906;SDS011;18455;50.858;13.662;2023-08-21T08:39:30;9.40;;;6.63;;
31906;SDS011;18455;50.858;13.662;2023-08-21T08:44:30;8.27;;;6.63;;
31906;SDS011;18455;50.858;13.662;2023-08-21T08:49:31;7.85;;;6.68;;
31906;SDS011;18455;50.858;13.662;2023-08-21T08:54:31;9.48;;;6.45;;
31906;SDS011;18455;50.858;13.662;2023-08-21T08:59:33;7.88;;;6.82;;
31906;SDS011;18455;50.858;13.662;2023-08-21T09:04:33;7.72;;;6.70;;
31906;SDS011;18455;50.858;13.662;2023-08-21T09:09:37;6.95;;;6.28;;
31906;SDS011;18455;50.858;13.662;2023-08-21T09:14:39;8.80;;;6.40;;
31906;SDS011;18455;50.858;13.662;2023-08-21T09:19:43;7.57;;;5.63;;
31906;SDS011;18455;50.858;13.662;2023-08-21T09:25:02;8.05;;;5.60;;
31906;SDS011;18455;50.858;13.662;2023-08-21T09:30:10;9.23;;;6.10;;
31906;SDS011;18455;50.858;13.662;2023-08-21T09:35:14;7.97;;;6.05;;
31906;SDS011;18455;50.858;13.662;2023-08-21T09:40:15;6.97;;;5.50;;
31906;SDS011;18455;50.858;13.662;2023-08-21T09:45:19;9.68;;;6.40;;
31906;SDS011;18455;50.858;13.662;2023-08-21T09:50:22;7.22;;;4.60;;
31906;SDS011;18455;50.858;13.662;2023-08-21T09:55:22;5.85;;;4.68;;
31906;SDS011;18455;50.858;13.662;2023-08-21T10:00:32;6.32;;;4.95;;
31906;SDS011;18455;50.858;13.662;2023-08-21T10:05:35;7.93;;;5.03;;
31906;SDS011;18455;50.858;13.662;2023-08-21T10:10:37;6.65;;;4.93;;
31906;SDS011;18455;50.858;13.662;2023-08-21T10:15:38;10.13;;;4.47;;
31906;SDS011;18455;50.858;13.662;2023-08-21T10:20:39;7.13;;;4.70;;
31906;SDS011;18455;50.858;13.662;2023-08-21T10:25:41;6.70;;;4.50;;
31906;SDS011;18455;50.858;13.662;2023-08-21T10:30:42;8.00;;;5.18;;
31906;SDS011;18455;50.858;13.662;2023-08-21T10:35:42;7.97;;;4.63;;
31906;SDS011;18455;50.858;13.662;2023-08-21T10:46:06;6.30;;;4.57;;
31906;SDS011;18455;50.858;13.662;2023-08-21T10:51:08;6.65;;;5.10;;
31906;SDS011;18455;50.858;13.662;2023-08-21T10:56:09;6.43;;;5.38;;
31906;SDS011;18455;50.858;13.662;2023-08-21T11:01:10;5.15;;;4.50;;
31906;SDS011;18455;50.858;13.662;2023-08-21T11:06:12;5.82;;;4.35;;
31906;SDS011;18455;50.858;13.662;2023-08-21T11:11:13;8.15;;;4.85;;
31906;SDS011;18455;50.858;13.662;2023-08-21T11:16:13;7.32;;;4.57;;
31906;SDS011;18455;50.858;13.662;2023-08-21T11:21:14;4.77;;;4.27;;
31906;SDS011;18455;50.858;13.662;2023-08-21T11:26:14;5.40;;;4.70;;
31906;SDS011;18455;50.858;13.662;2023-08-21T11:31:15;5.15;;;4.32;;
31906;SDS011;18455;50.858;13.662;2023-08-21T11:36:16;7.38;;;4.72;;
31906;SDS011;18455;50.858;13.662;2023-08-21T11:41:16;5.25;;;4.50;;
31906;SDS011;18455;50.858;13.662;2023-08-21T11:46:17;7.22;;;4.78;;
31906;SDS011;18455;50.858;13.662;2023-08-21T11:51:18;5.15;;;4.45;;
31906;SDS011;18455;50.858;13.662;2023-08-21T11:56:18;8.95;;;4.88;;
31906;SDS011;18455;50.858;13.662;2023-08-21T12:01:19;8.52;;;4.53;;
31906;SDS011;18455;50.858;13.662;2023-08-21T12:06:20;6.20;;;3.95;;
31906;SDS011;18455;50.858;13.662;2023-08-21T12:11:21;6.68;;;4.53;;
31906;SDS011;18455;50.858;13.662;2023-08-21T12:16:22;7.90;;;4.07;;
31906;SDS011;18455;50.858;13.662;2023-08-21T12:21:22;7.30;;;4.20;;
31906;SDS011;18455;50.858;13.662;2023-08-21T12:26:25;6.32;;;4.47;;
31906;SDS011;18455;50.858;13.662;2023-08-21T12:31:25;6.93;;;3.55;;
31906;SDS011;18455;50.858;13.662;2023-08-21T12:36:26;5.90;;;4.07;;
31906;SDS011;18455;50.858;13.662;2023-08-21T12:41:26;6.63;;;4.23;;
31906;SDS011;18455;50.858;13.662;2023-08-21T12:46:26;7.53;;;4.20;;
31906;SDS011;18455;50.858;13.662;2023-08-21T12:51:28;7.03;;;3.90;;
31906;SDS011;18455;50.858;13.662;2023-08-21T12:56:29;4.80;;;3.90;;
31906;SDS011;18455;50.858;13.662;2023-08-21T13:01:29;6.15;;;4.07;;
31906;SDS011;18455;50.858;13.662;2023-08-21T13:06:31;9.75;;;4.70;;
31906;SDS011;18455;50.858;13.662;2023-08-21T13:11:32;6.07;;;3.43;;
31906;SDS011;18455;50.858;13.662;2023-08-21T13:16:32;5.82;;;3.70;;
31906;SDS011;18455;50.858;13.662;2023-08-21T13:21:35;5.57;;;3.37;;
31906;SDS011;18455;50.858;13.662;2023-08-21T13:26:39;7.63;;;3.50;;
31906;SDS011;18455;50.858;13.662;2023-08-21T13:31:39;6.80;;;3.95;;
31906;SDS011;18455;50.858;13.662;2023-08-21T13:36:40;5.80;;;3.50;;
31906;SDS011;18455;50.858;13.662;2023-08-21T13:41:40;6.65;;;3.60;;
31906;SDS011;18455;50.858;13.662;2023-08-21T13:46:41;5.72;;;3.40;;
31906;SDS011;18455;50.858;13.662;2023-08-21T13:51:41;11.83;;;4.40;;
31906;SDS011;18455;50.858;13.662;2023-08-21T13:56:42;5.93;;;3.60;;
31906;SDS011;18455;50.858;13.662;2023-08-21T14:01:42;4.93;;;3.15;;
31906;SDS011;18455;50.858;13.662;2023-08-21T14:06:42;5.53;;;3.47;;
31906;SDS011;18455;50.858;13.662;2023-08-21T14:11:43;5.53;;;3.72;;
31906;SDS011;18455;50.858;13.662;2023-08-21T14:16:43;5.00;;;3.60;;
31906;SDS011;18455;50.858;13.662;2023-08-21T14:21:44;6.83;;;3.63;;
31906;SDS011;18455;50.858;13.662;2023-08-21T14:26:44;4.77;;;3.30;;
31906;SDS011;18455;50.858;13.662;2023-08-21T14:31:44;6.90;;;3.50;;
31906;SDS011;18455;50.858;13.662;2023-08-21T14:36:47;8.52;;;3.70;;
31906;SDS011;18455;50.858;13.662;2023-08-21T14:41:53;6.40;;;3.80;;
31906;SDS011;18455;50.858;13.662;2023-08-21T14:46:55;7.13;;;3.33;;
31906;SDS011;18455;50.858;13.662;2023-08-21T14:51:55;7.68;;;3.60;;
31906;SDS011;18455;50.858;13.662;2023-08-21T14:56:56;6.40;;;3.72;;
31906;SDS011;18455;50.858;13.662;2023-08-21T15:01:56;7.17;;;4.10;;
31906;SDS011;18455;50.858;13.662;2023-08-21T15:06:56;7.72;;;3.90;;
31906;SDS011;18455;50.858;13.662;2023-08-21T15:11:57;6.17;;;3.70;;
31906;SDS011;18455;50.858;13.662;2023-08-21T15:16:57;5.47;;;3.67;;
31906;SDS011;18455;50.858;13.662;2023-08-21T15:21:58;4.97;;;3.47;;
31906;SDS011;18455;50.858;13.662;2023-08-21T15:26:58;6.68;;;3.83;;
31906;SDS011;18455;50.858;13.662;2023-08-21T15:31:58;5.50;;;3.40;;
31906;SDS011;18455;50.858;13.662;2023-08-21T15:36:59;4.33;;;3.10;;
31906;SDS011;18455;50.858;13.662;2023-08-21T15:41:59;5.30;;;3.20;;
31906;SDS011;18455;50.858;13.662;2023-08-21T15:46:59;4.07;;;3.13;;
31906;SDS011;18455;50.858;13.662;2023-08-21T15:52:00;6.93;;;3.70;;
31906;SDS011;18455;50.858;13.662;2023-08-21T15:57:00;5.57;;;3.10;;
31906;SDS011;18455;50.858;13.662;2023-08-21T16:02:01;6.47;;;3.45;;
31906;SDS011;18455;50.858;13.662;2023-08-21T16:07:01;4.40;;;3.47;;
31906;SDS011;18455;50.858;13.662;2023-08-21T16:12:02;7.82;;;3.35;;
31906;SDS011;18455;50.858;13.662;2023-08-21T16:17:03;7.22;;;3.25;;
31906;SDS011;18455;50.858;13.662;2023-08-21T16:22:06;5.00;;;3.63;;
31906;SDS011;18455;50.858;13.662;2023-08-21T16:27:07;7.32;;;3.55;;
31906;SDS011;18455;50.858;13.662;2023-08-21T16:32:07;6.60;;;3.50;;
31906;SDS011;18455;50.858;13.662;2023-08-21T16:37:08;8.82;;;3.42;;
31906;SDS011;18455;50.858;13.662;2023-08-21T16:42:08;8.00;;;3.80;;
31906;SDS011;18455;50.858;13.662;2023-08-21T16:47:09;4.78;;;3.78;;
31906;SDS011;18455;50.858;13.662;2023-08-21T16:52:09;6.25;;;4.10;;
31906;SDS011;18455;50.858;13.662;2023-08-21T16:57:09;9.85;;;4.43;;
31906;SDS011;18455;50.858;13.662;2023-08-21T17:02:10;6.55;;;4.25;;
31906;SDS011;18455;50.858;13.662;2023-08-21T17:07:11;7.57;;;3.90;;
31906;SDS011;18455;50.858;13.662;2023-08-21T17:12:11;7.85;;;4.10;;
31906;SDS011;18455;50.858;13.662;2023-08-21T17:17:12;7.07;;;4.13;;
31906;SDS011;18455;50.858;13.662;2023-08-21T17:22:13;7.10;;;3.75;;
31906;SDS011;18455;50.858;13.662;2023-08-21T17:27:13;7.53;;;4.10;;
31906;SDS011;18455;50.858;13.662;2023-08-21T17:32:14;4.20;;;3.80;;
31906;SDS011;18455;50.858;13.662;2023-08-21T17:37:15;7.78;;;4.40;;
31906;SDS011;18455;50.858;13.662;2023-08-21T17:42:17;5.72;;;5.00;;
31906;SDS011;18455;50.858;13.662;2023-08-21T17:47:17;7.05;;;4.88;;
31906;SDS011;18455;50.858;13.662;2023-08-21T17:52:17;12.67;;;7.53;;
31906;SDS011;18455;50.858;13.662;2023-08-21T17:57:18;11.90;;;7.72;;
31906;SDS011;18455;50.858;13.662;2023-08-21T18:02:19;11.27;;;5.20;;
31906;SDS011;18455;50.858;13.662;2023-08-21T18:07:19;9.95;;;4.97;;
31906;SDS011;18455;50.858;13.662;2023-08-21T18:12:20;7.50;;;5.00;;
31906;SDS011;18455;50.858;13.662;2023-08-21T18:17:20;7.40;;;5.07;;
31906;SDS011;18455;50.858;13.662;2023-08-21T18:22:20;8.52;;;5.35;;
31906;SDS011;18455;50.858;13.662;2023-08-21T18:27:21;6.97;;;5.35;;
31906;SDS011;18455;50.858;13.662;2023-08-21T18:32:21;8.23;;;6.75;;
31906;SDS011;18455;50.858;13.662;2023-08-21T18:37:23;6.55;;;5.15;;
31906;SDS011;18455;50.858;13.662;2023-08-21T18:42:23;10.55;;;7.00;;
31906;SDS011;18455;50.858;13.662;2023-08-21T18:47:23;13.02;;;10.15;;
31906;SDS011;18455;50.858;13.662;2023-08-21T18:52:26;9.00;;;8.10;;
31906;SDS011;18455;50.858;13.662;2023-08-21T18:57:26;13.45;;;6.18;;
31906;SDS011;18455;50.858;13.662;2023-08-21T19:02:27;11.48;;;5.80;;
31906;SDS011;18455;50.858;13.662;2023-08-21T19:07:27;11.07;;;7.25;;
31906;SDS011;18455;50.858;13.662;2023-08-21T19:12:28;8.98;;;6.40;;
31906;SDS011;18455;50.858;13.662;2023-08-21T19:17:28;11.45;;;8.18;;
31906;SDS011;18455;50.858;13.662;2023-08-21T19:22:29;10.52;;;7.20;;
31906;SDS011;18455;50.858;13.662;2023-08-21T19:27:29;14.75;;;6.55;;
31906;SDS011;18455;50.858;13.662;2023-08-21T19:32:30;12.15;;;7.32;;
31906;SDS011;18455;50.858;13.662;2023-08-21T19:37:30;8.73;;;6.28;;
31906;SDS011;18455;50.858;13.662;2023-08-21T19:42:31;7.97;;;6.93;;
31906;SDS011;18455;50.858;13.662;2023-08-21T19:47:32;9.63;;;6.28;;
31906;SDS011;18455;50.858;13.662;2023-08-21T19:52:32;10.50;;;7.13;;
31906;SDS011;18455;50.858;13.662;2023-08-21T19:57:32;8.32;;;6.97;;
31906;SDS011;18455;50.858;13.662;2023-08-21T20:02:33;10.52;;;7.22;;
31906;SDS011;18455;50.858;13.662;2023-08-21T20:07:33;25.63;;;15.90;;
31906;SDS011;18455;50.858;13.662;2023-08-21T20:12:33;12.02;;;8.95;;
31906;SDS011;18455;50.858;13.662;2023-08-21T20:17:35;12.57;;;8.20;;
31906;SDS011;18455;50.858;13.662;2023-08-21T20:22:35;9.35;;;8.43;;
31906;SDS011;18455;50.858;13.662;2023-08-21T20:27:35;12.43;;;8.25;;
31906;SDS011;18455;50.858;13.662;2023-08-21T20:32:36;14.18;;;9.77;;
31906;SDS011;18455;50.858;13.662;2023-08-21T20:37:36;15.13;;;8.40;;
31906;SDS011;18455;50.858;13.662;2023-08-21T20:42:37;16.38;;;8.63;;
31906;SDS011;18455;50.858;13.662;2023-08-21T20:47:38;12.07;;;7.97;;
31906;SDS011;18455;50.858;13.662;2023-08-21T20:52:38;11.13;;;8.75;;
31906;SDS011;18455;50.858;13.662;2023-08-21T20:57:39;10.93;;;8.77;;
31906;SDS011;18455;50.858;13.662;2023-08-21T21:02:40;15.10;;;9.75;;
31906;SDS011;18455;50.858;13.662;2023-08-21T21:07:40;15.23;;;10.00;;
31906;SDS011;18455;50.858;13.662;2023-08-21T21:12:41;12.52;;;9.93;;
31906;SDS011;18455;50.858;13.662;2023-08-21T21:17:42;19.10;;;10.32;;
31906;SDS011;18455;50.858;13.662;2023-08-21T21:22:42;21.67;;;10.80;;
31906;SDS011;18455;50.858;13.662;2023-08-21T21:28:47;15.02;;;10.60;;
31906;SDS011;18455;50.858;13.662;2023-08-21T21:33:47;12.68;;;11.07;;
31906;SDS011;18455;50.858;13.662;2023-08-21T21:38:52;15.27;;;10.77;;
31906;SDS011;18455;50.858;13.662;2023-08-21T21:43:53;17.10;;;11.98;;
31906;SDS011;18455;50.858;13.662;2023-08-21T21:48:53;15.10;;;12.18;;
31906;SDS011;18455;50.858;13.662;2023-08-21T21:53:53;15.00;;;11.05;;
31906;SDS011;18455;50.858;13.662;2023-08-21T21:58:54;16.02;;;11.68;;
31906;SDS011;18455;50.858;13.662;2023-08-21T22:03:54;15.68;;;11.77;;
31906;SDS011;18455;50.858;13.662;2023-08-21T22:08:55;15.63;;;12.02;;
31906;SDS011;18455;50.858;13.662;2023-08-21T22:13:55;17.85;;;11.80;;
31906;SDS011;18455;50.858;13.662;2023-08-21T22:18:56;13.57;;;11.27;;
31906;SDS011;18455;50.858;13.662;2023-08-21T22:23:56;16.40;;;11.23;;
31906;SDS011;18455;50.858;13.662;2023-08-21T22:28:57;20.65;;;12.35;;
31906;SDS011;18455;50.858;13.662;2023-08-21T22:33:57;17.73;;;12.50;;
31906;SDS011;18455;50.858;13.662;2023-08-21T22:38:57;21.02;;;12.73;;
31906;SDS011;18455;50.858;13.662;2023-08-21T22:43:58;18.55;;;12.50;;
31906;SDS011;18455;50.858;13.662;2023-08-21T22:48:58;15.55;;;12.38;;
31906;SDS011;18455;50.858;13.662;2023-08-21T22:53:58;16.77;;;12.85;;
31906;SDS011;18455;50.858;13.662;2023-08-21T22:58:59;13.70;;;11.88;;
31906;SDS011;18455;50.858;13.662;2023-08-21T23:03:59;19.10;;;13.07;;
31906;SDS011;18455;50.858;13.662;2023-08-21T23:09:00;18.35;;;13.30;;
31906;SDS011;18455;50.858;13.662;2023-08-21T23:14:00;16.15;;;13.25;;
31906;SDS011;18455;50.858;13.662;2023-08-21T23:19:00;17.25;;;13.93;;
31906;SDS011;18455;50.858;13.662;2023-08-21T23:24:01;18.38;;;13.50;;
31906;SDS011;18455;50.858;13.662;2023-08-21T23:29:01;16.27;;;13.60;;
31906;SDS011;18455;50.858;13.662;2023-08-21T23:34:03;20.50;;;13.57;;
31906;SDS011;18455;50.858;13.662;2023-08-21T23:39:04;17.95;;;14.00;;
31906;SDS011;18455;50.858;13.662;2023-08-21T23:44:07;17.98;;;14.30;;
31906;SDS011;18455;50.858;13.662;2023-08-21T23:49:09;17.92;;;13.43;;
31906;SDS011;18455;50.858;13.662;2023-08-21T23:54:09;17.33;;;13.15;;
31906;SDS011;18455;50.858;13.662;2023-08-21T23:59:10;15.73;;;12.98;;
